sensor_id;sensor_type;location;lat;lon;timestamp;P1;durP1;ratioP1;P2;durP2;ratioP2
11187;SDS011;5650;52.700;7.306;2023-06-24T00:00:55;5.60;;;4.53;;
11187;SDS011;5650;52.700;7.306;2023-06-24T00:03:22;8.18;;;5.22;;
11187;SDS011;5650;52.700;7.306;2023-06-24T00:05:49;7.40;;;5.25;;
11187;SDS011;5650;52.700;7.306;2023-06-24T00:08:16;8.38;;;5.30;;
11187;SDS011;5650;52.700;7.306;2023-06-24T00:10:47;6.68;;;4.82;;
11187;SDS011;5650;52.700;7.306;2023-06-24T00:13:16;6.43;;;5.20;;
11187;SDS011;5650;52.700;7.306;2023-06-24T00:15:45;8.25;;;5.32;;
11187;SDS011;5650;52.700;7.306;2023-06-24T00:18:12;8.63;;;5.90;;
11187;SDS011;5650;52.700;7.306;2023-06-24T00:20:39;8.00;;;5.25;;
11187;SDS011;5650;52.700;7.306;2023-06-24T00:23:08;12.65;;;5.93;;
11187;SDS011;5650;52.700;7.306;2023-06-24T00:25:39;7.22;;;5.05;;
11187;SDS011;5650;52.700;7.306;2023-06-24T00:28:07;6.60;;;5.47;;
11187;SDS011;5650;52.700;7.306;2023-06-24T00:30:34;9.60;;;5.40;;
11187;SDS011;5650;52.700;7.306;2023-06-24T00:33:03;8.23;;;5.40;;
11187;SDS011;5650;52.700;7.306;2023-06-24T00:35:34;9.98;;;5.07;;
11187;SDS011;5650;52.700;7.306;2023-06-24T00:38:02;7.80;;;5.18;;
11187;SDS011;5650;52.700;7.306;2023-06-24T00:40:29;8.93;;;5.75;;
11187;SDS011;5650;52.700;7.306;2023-06-24T00:43:00;8.05;;;5.55;;
11187;SDS011;5650;52.700;7.306;2023-06-24T00:45:28;7.88;;;6.20;;
11187;SDS011;5650;52.700;7.306;2023-06-24T00:47:57;8.98;;;5.65;;
11187;SDS011;5650;52.700;7.306;2023-06-24T00:50:26;9.27;;;6.25;;
11187;SDS011;5650;52.700;7.306;2023-06-24T00:52:53;8.75;;;5.38;;
11187;SDS011;5650;52.700;7.306;2023-06-24T00:55:21;7.03;;;5.57;;
11187;SDS011;5650;52.700;7.306;2023-06-24T00:57:50;8.20;;;5.82;;
11187;SDS011;5650;52.700;7.306;2023-06-24T01:00:25;8.32;;;6.05;;
11187;SDS011;5650;52.700;7.306;2023-06-24T01:02:52;6.68;;;5.95;;
11187;SDS011;5650;52.700;7.306;2023-06-24T01:05:27;7.72;;;5.47;;
11187;SDS011;5650;52.700;7.306;2023-06-24T01:08:00;13.75;;;5.93;;
11187;SDS011;5650;52.700;7.306;2023-06-24T01:10:31;6.95;;;5.40;;
11187;SDS011;5650;52.700;7.306;2023-06-24T01:13:02;6.15;;;5.22;;
11187;SDS011;5650;52.700;7.306;2023-06-24T01:15:31;6.63;;;5.63;;
11187;SDS011;5650;52.700;7.306;2023-06-24T01:17:59;8.45;;;6.15;;
11187;SDS011;5650;52.700;7.306;2023-06-24T01:20:33;6.43;;;5.70;;
11187;SDS011;5650;52.700;7.306;2023-06-24T01:23:24;5.78;;;5.28;;
11187;SDS011;5650;52.700;7.306;2023-06-24T01:26:28;6.55;;;5.35;;
11187;SDS011;5650;52.700;7.306;2023-06-24T01:32:05;6.40;;;5.80;;
11187;SDS011;5650;52.700;7.306;2023-06-24T01:34:40;6.45;;;5.60;;
11187;SDS011;5650;52.700;7.306;2023-06-24T01:37:16;6.68;;;5.55;;
11187;SDS011;5650;52.700;7.306;2023-06-24T01:39:56;8.63;;;5.88;;
11187;SDS011;5650;52.700;7.306;2023-06-24T01:42:32;7.97;;;5.70;;
11187;SDS011;5650;52.700;7.306;2023-06-24T01:45:03;7.22;;;5.32;;
11187;SDS011;5650;52.700;7.306;2023-06-24T01:47:37;5.95;;;5.35;;
11187;SDS011;5650;52.700;7.306;2023-06-24T01:50:07;7.30;;;5.72;;
11187;SDS011;5650;52.700;7.306;2023-06-24T01:52:37;8.38;;;5.63;;
11187;SDS011;5650;52.700;7.306;2023-06-24T01:55:07;7.95;;;6.20;;
11187;SDS011;5650;52.700;7.306;2023-06-24T01:57:37;9.80;;;5.63;;
11187;SDS011;5650;52.700;7.306;2023-06-24T02:00:07;9.45;;;6.13;;
11187;SDS011;5650;52.700;7.306;2023-06-24T02:02:37;8.82;;;6.05;;
11187;SDS011;5650;52.700;7.306;2023-06-24T02:05:05;6.53;;;5.32;;
11187;SDS011;5650;52.700;7.306;2023-06-24T02:07:34;7.38;;;5.50;;
11187;SDS011;5650;52.700;7.306;2023-06-24T02:10:02;8.00;;;6.00;;
11187;SDS011;5650;52.700;7.306;2023-06-24T02:12:31;6.97;;;5.55;;
11187;SDS011;5650;52.700;7.306;2023-06-24T02:14:59;8.38;;;5.47;;
11187;SDS011;5650;52.700;7.306;2023-06-24T02:17:32;6.25;;;5.63;;
11187;SDS011;5650;52.700;7.306;2023-06-24T02:20:01;6.55;;;5.68;;
11187;SDS011;5650;52.700;7.306;2023-06-24T02:22:30;6.30;;;5.70;;
11187;SDS011;5650;52.700;7.306;2023-06-24T02:24:58;7.20;;;6.50;;
11187;SDS011;5650;52.700;7.306;2023-06-24T02:27:26;6.75;;;6.13;;
11187;SDS011;5650;52.700;7.306;2023-06-24T02:29:59;8.35;;;6.30;;
11187;SDS011;5650;52.700;7.306;2023-06-24T02:32:27;8.77;;;6.15;;
11187;SDS011;5650;52.700;7.306;2023-06-24T02:34:54;6.35;;;5.68;;
11187;SDS011;5650;52.700;7.306;2023-06-24T02:37:24;8.00;;;6.28;;
11187;SDS011;5650;52.700;7.306;2023-06-24T02:39:52;7.10;;;6.40;;
11187;SDS011;5650;52.700;7.306;2023-06-24T02:42:19;7.90;;;6.40;;
11187;SDS011;5650;52.700;7.306;2023-06-24T02:44:48;7.43;;;5.97;;
11187;SDS011;5650;52.700;7.306;2023-06-24T02:47:22;7.05;;;6.25;;
11187;SDS011;5650;52.700;7.306;2023-06-24T02:49:53;7.63;;;6.93;;
11187;SDS011;5650;52.700;7.306;2023-06-24T02:52:27;9.30;;;6.60;;
11187;SDS011;5650;52.700;7.306;2023-06-24T02:54:55;8.43;;;7.00;;
11187;SDS011;5650;52.700;7.306;2023-06-24T02:57:23;8.18;;;6.40;;
11187;SDS011;5650;52.700;7.306;2023-06-24T02:59:51;10.55;;;7.53;;
11187;SDS011;5650;52.700;7.306;2023-06-24T03:02:18;9.38;;;7.13;;
11187;SDS011;5650;52.700;7.306;2023-06-24T03:04:45;7.57;;;6.85;;
11187;SDS011;5650;52.700;7.306;2023-06-24T03:07:14;8.27;;;7.47;;
11187;SDS011;5650;52.700;7.306;2023-06-24T03:09:47;8.27;;;7.35;;
11187;SDS011;5650;52.700;7.306;2023-06-24T03:12:17;8.05;;;6.95;;
11187;SDS011;5650;52.700;7.306;2023-06-24T03:14:45;10.77;;;7.32;;
11187;SDS011;5650;52.700;7.306;2023-06-24T03:17:12;8.07;;;7.05;;
11187;SDS011;5650;52.700;7.306;2023-06-24T03:19:40;10.80;;;8.20;;
11187;SDS011;5650;52.700;7.306;2023-06-24T03:22:09;8.73;;;7.43;;
11187;SDS011;5650;52.700;7.306;2023-06-24T03:24:39;10.07;;;7.90;;
11187;SDS011;5650;52.700;7.306;2023-06-24T03:27:11;9.27;;;8.10;;
11187;SDS011;5650;52.700;7.306;2023-06-24T03:29:41;8.15;;;7.03;;
11187;SDS011;5650;52.700;7.306;2023-06-24T03:32:08;8.25;;;7.45;;
11187;SDS011;5650;52.700;7.306;2023-06-24T03:34:36;12.35;;;7.70;;
11187;SDS011;5650;52.700;7.306;2023-06-24T03:37:09;12.45;;;7.50;;
11187;SDS011;5650;52.700;7.306;2023-06-24T03:39:36;8.25;;;7.45;;
11187;SDS011;5650;52.700;7.306;2023-06-24T03:42:03;7.95;;;7.07;;
11187;SDS011;5650;52.700;7.306;2023-06-24T03:44:32;10.80;;;7.40;;
11187;SDS011;5650;52.700;7.306;2023-06-24T03:46:59;11.52;;;7.25;;
11187;SDS011;5650;52.700;7.306;2023-06-24T03:49:26;7.25;;;6.55;;
11187;SDS011;5650;52.700;7.306;2023-06-24T03:51:54;12.75;;;7.70;;
11187;SDS011;5650;52.700;7.306;2023-06-24T03:54:24;8.20;;;7.15;;
11187;SDS011;5650;52.700;7.306;2023-06-24T03:56:55;8.65;;;7.78;;
11187;SDS011;5650;52.700;7.306;2023-06-24T03:59:22;8.57;;;7.30;;
11187;SDS011;5650;52.700;7.306;2023-06-24T04:01:51;8.20;;;7.40;;
11187;SDS011;5650;52.700;7.306;2023-06-24T04:04:18;8.27;;;7.38;;
11187;SDS011;5650;52.700;7.306;2023-06-24T04:06:48;9.93;;;7.72;;
11187;SDS011;5650;52.700;7.306;2023-06-24T04:09:15;8.60;;;7.18;;
11187;SDS011;5650;52.700;7.306;2023-06-24T04:11:43;9.27;;;7.43;;
11187;SDS011;5650;52.700;7.306;2023-06-24T04:14:10;7.38;;;6.68;;
11187;SDS011;5650;52.700;7.306;2023-06-24T04:16:37;9.15;;;7.50;;
11187;SDS011;5650;52.700;7.306;2023-06-24T04:19:06;8.43;;;6.82;;
11187;SDS011;5650;52.700;7.306;2023-06-24T04:21:34;8.35;;;6.68;;
11187;SDS011;5650;52.700;7.306;2023-06-24T04:24:06;6.93;;;6.22;;
11187;SDS011;5650;52.700;7.306;2023-06-24T04:26:33;7.00;;;6.30;;
11187;SDS011;5650;52.700;7.306;2023-06-24T04:29:00;6.78;;;6.13;;
11187;SDS011;5650;52.700;7.306;2023-06-24T04:31:28;7.88;;;6.20;;
11187;SDS011;5650;52.700;7.306;2023-06-24T04:33:55;7.75;;;5.93;;
11187;SDS011;5650;52.700;7.306;2023-06-24T04:36:26;7.00;;;5.85;;
11187;SDS011;5650;52.700;7.306;2023-06-24T04:38:54;6.57;;;5.93;;
11187;SDS011;5650;52.700;7.306;2023-06-24T04:41:21;6.28;;;4.95;;
11187;SDS011;5650;52.700;7.306;2023-06-24T04:43:49;6.38;;;5.78;;
11187;SDS011;5650;52.700;7.306;2023-06-24T04:46:19;6.80;;;5.88;;
11187;SDS011;5650;52.700;7.306;2023-06-24T04:48:46;6.20;;;5.55;;
11187;SDS011;5650;52.700;7.306;2023-06-24T04:51:14;7.28;;;6.07;;
11187;SDS011;5650;52.700;7.306;2023-06-24T04:53:43;10.10;;;6.40;;
11187;SDS011;5650;52.700;7.306;2023-06-24T04:56:13;7.03;;;5.85;;
11187;SDS011;5650;52.700;7.306;2023-06-24T04:58:40;6.60;;;5.80;;
11187;SDS011;5650;52.700;7.306;2023-06-24T05:01:17;8.10;;;5.78;;
11187;SDS011;5650;52.700;7.306;2023-06-24T05:03:44;6.45;;;5.80;;
11187;SDS011;5650;52.700;7.306;2023-06-24T05:06:11;6.95;;;5.93;;
11187;SDS011;5650;52.700;7.306;2023-06-24T05:08:39;6.78;;;5.63;;
11187;SDS011;5650;52.700;7.306;2023-06-24T05:11:08;9.38;;;5.65;;
11187;SDS011;5650;52.700;7.306;2023-06-24T05:13:35;7.88;;;5.40;;
11187;SDS011;5650;52.700;7.306;2023-06-24T05:16:06;10.18;;;5.35;;
11187;SDS011;5650;52.700;7.306;2023-06-24T05:18:36;6.60;;;5.07;;
11187;SDS011;5650;52.700;7.306;2023-06-24T05:21:03;7.95;;;5.50;;
11187;SDS011;5650;52.700;7.306;2023-06-24T05:23:31;10.95;;;5.15;;
11187;SDS011;5650;52.700;7.306;2023-06-24T05:26:01;8.88;;;5.28;;
11187;SDS011;5650;52.700;7.306;2023-06-24T05:28:29;7.93;;;4.90;;
11187;SDS011;5650;52.700;7.306;2023-06-24T05:30:57;5.68;;;4.90;;
11187;SDS011;5650;52.700;7.306;2023-06-24T05:33:24;7.70;;;5.38;;
11187;SDS011;5650;52.700;7.306;2023-06-24T05:35:52;10.40;;;5.15;;
11187;SDS011;5650;52.700;7.306;2023-06-24T05:38:19;7.95;;;4.45;;
11187;SDS011;5650;52.700;7.306;2023-06-24T05:40:46;5.75;;;5.20;;
11187;SDS011;5650;52.700;7.306;2023-06-24T05:43:13;5.25;;;4.75;;
11187;SDS011;5650;52.700;7.306;2023-06-24T05:45:42;8.07;;;5.32;;
11187;SDS011;5650;52.700;7.306;2023-06-24T05:48:09;9.80;;;4.65;;
11187;SDS011;5650;52.700;7.306;2023-06-24T05:50:40;8.63;;;4.60;;
11187;SDS011;5650;52.700;7.306;2023-06-24T05:53:07;8.23;;;4.82;;
11187;SDS011;5650;52.700;7.306;2023-06-24T05:55:40;6.97;;;5.10;;
11187;SDS011;5650;52.700;7.306;2023-06-24T05:58:07;7.68;;;4.45;;
11187;SDS011;5650;52.700;7.306;2023-06-24T06:00:35;8.77;;;4.43;;
11187;SDS011;5650;52.700;7.306;2023-06-24T06:03:10;7.38;;;4.70;;
11187;SDS011;5650;52.700;7.306;2023-06-24T06:05:37;6.97;;;3.75;;
11187;SDS011;5650;52.700;7.306;2023-06-24T06:08:04;7.10;;;4.13;;
11187;SDS011;5650;52.700;7.306;2023-06-24T06:10:31;6.57;;;4.32;;
11187;SDS011;5650;52.700;7.306;2023-06-24T06:13:08;10.90;;;4.38;;
11187;SDS011;5650;52.700;7.306;2023-06-24T06:15:35;5.97;;;3.97;;
11187;SDS011;5650;52.700;7.306;2023-06-24T06:18:03;6.63;;;4.28;;
11187;SDS011;5650;52.700;7.306;2023-06-24T06:20:32;6.43;;;3.85;;
11187;SDS011;5650;52.700;7.306;2023-06-24T06:23:02;5.80;;;4.05;;
11187;SDS011;5650;52.700;7.306;2023-06-24T06:25:33;5.53;;;3.85;;
11187;SDS011;5650;52.700;7.306;2023-06-24T06:28:00;7.88;;;4.20;;
11187;SDS011;5650;52.700;7.306;2023-06-24T06:30:33;4.15;;;3.63;;
11187;SDS011;5650;52.700;7.306;2023-06-24T06:33:04;8.23;;;3.90;;
11187;SDS011;5650;52.700;7.306;2023-06-24T06:35:32;4.75;;;3.63;;
11187;SDS011;5650;52.700;7.306;2023-06-24T06:37:59;5.40;;;3.67;;
11187;SDS011;5650;52.700;7.306;2023-06-24T06:40:27;5.22;;;3.95;;
11187;SDS011;5650;52.700;7.306;2023-06-24T06:42:57;6.68;;;4.10;;
11187;SDS011;5650;52.700;7.306;2023-06-24T06:45:24;8.82;;;4.10;;
11187;SDS011;5650;52.700;7.306;2023-06-24T06:47:52;6.65;;;3.70;;
11187;SDS011;5650;52.700;7.306;2023-06-24T06:50:19;5.70;;;3.28;;
11187;SDS011;5650;52.700;7.306;2023-06-24T06:52:47;8.38;;;3.83;;
11187;SDS011;5650;52.700;7.306;2023-06-24T06:55:15;7.38;;;3.60;;
11187;SDS011;5650;52.700;7.306;2023-06-24T06:57:42;6.55;;;3.70;;
11187;SDS011;5650;52.700;7.306;2023-06-24T07:00:15;4.18;;;3.25;;
11187;SDS011;5650;52.700;7.306;2023-06-24T07:02:43;6.95;;;3.60;;
11187;SDS011;5650;52.700;7.306;2023-06-24T07:05:10;5.05;;;3.40;;
11187;SDS011;5650;52.700;7.306;2023-06-24T07:07:37;5.70;;;3.53;;
11187;SDS011;5650;52.700;7.306;2023-06-24T07:10:06;5.97;;;3.47;;
11187;SDS011;5650;52.700;7.306;2023-06-24T07:12:34;4.80;;;3.20;;
11187;SDS011;5650;52.700;7.306;2023-06-24T07:15:01;4.78;;;4.30;;
11187;SDS011;5650;52.700;7.306;2023-06-24T07:17:29;8.32;;;4.07;;
11187;SDS011;5650;52.700;7.306;2023-06-24T07:19:56;5.70;;;3.92;;
11187;SDS011;5650;52.700;7.306;2023-06-24T07:22:23;4.47;;;3.60;;
11187;SDS011;5650;52.700;7.306;2023-06-24T07:24:50;8.20;;;4.35;;
11187;SDS011;5650;52.700;7.306;2023-06-24T07:27:19;5.15;;;3.80;;
11187;SDS011;5650;52.700;7.306;2023-06-24T07:29:46;5.97;;;3.38;;
11187;SDS011;5650;52.700;7.306;2023-06-24T07:32:14;5.82;;;4.40;;
11187;SDS011;5650;52.700;7.306;2023-06-24T07:34:44;5.90;;;4.97;;
11187;SDS011;5650;52.700;7.306;2023-06-24T07:37:11;6.57;;;4.13;;
11187;SDS011;5650;52.700;7.306;2023-06-24T07:39:38;7.68;;;4.78;;
11187;SDS011;5650;52.700;7.306;2023-06-24T07:42:06;6.57;;;3.58;;
11187;SDS011;5650;52.700;7.306;2023-06-24T07:44:35;4.72;;;4.07;;
11187;SDS011;5650;52.700;7.306;2023-06-24T07:47:04;5.10;;;3.45;;
11187;SDS011;5650;52.700;7.306;2023-06-24T07:49:35;8.68;;;4.15;;
11187;SDS011;5650;52.700;7.306;2023-06-24T07:52:02;7.22;;;4.30;;
11187;SDS011;5650;52.700;7.306;2023-06-24T07:54:31;8.85;;;5.18;;
11187;SDS011;5650;52.700;7.306;2023-06-24T07:56:58;5.18;;;4.68;;
11187;SDS011;5650;52.700;7.306;2023-06-24T07:59:25;6.63;;;4.88;;
11187;SDS011;5650;52.700;7.306;2023-06-24T08:01:56;8.15;;;4.75;;
11187;SDS011;5650;52.700;7.306;2023-06-24T08:04:24;8.10;;;5.47;;
11187;SDS011;5650;52.700;7.306;2023-06-24T08:06:56;8.90;;;5.93;;
11187;SDS011;5650;52.700;7.306;2023-06-24T08:09:26;6.88;;;5.40;;
11187;SDS011;5650;52.700;7.306;2023-06-24T08:11:56;8.50;;;6.45;;
11187;SDS011;5650;52.700;7.306;2023-06-24T08:14:23;9.43;;;6.38;;
11187;SDS011;5650;52.700;7.306;2023-06-24T08:16:50;6.40;;;5.45;;
11187;SDS011;5650;52.700;7.306;2023-06-24T08:19:19;6.63;;;5.47;;
11187;SDS011;5650;52.700;7.306;2023-06-24T08:21:46;7.28;;;5.53;;
11187;SDS011;5650;52.700;7.306;2023-06-24T08:24:16;7.07;;;5.20;;
11187;SDS011;5650;52.700;7.306;2023-06-24T08:26:43;8.40;;;5.22;;
11187;SDS011;5650;52.700;7.306;2023-06-24T08:29:10;11.23;;;6.40;;
11187;SDS011;5650;52.700;7.306;2023-06-24T08:31:38;13.02;;;7.13;;
11187;SDS011;5650;52.700;7.306;2023-06-24T08:34:05;10.18;;;6.00;;
11187;SDS011;5650;52.700;7.306;2023-06-24T08:36:37;10.57;;;7.00;;
11187;SDS011;5650;52.700;7.306;2023-06-24T08:39:04;9.68;;;6.55;;
11187;SDS011;5650;52.700;7.306;2023-06-24T08:41:36;8.43;;;6.70;;
11187;SDS011;5650;52.700;7.306;2023-06-24T08:44:04;13.18;;;6.95;;
11187;SDS011;5650;52.700;7.306;2023-06-24T08:46:31;7.63;;;5.03;;
11187;SDS011;5650;52.700;7.306;2023-06-24T08:49:02;9.75;;;5.95;;
11187;SDS011;5650;52.700;7.306;2023-06-24T08:51:39;8.70;;;6.13;;
11187;SDS011;5650;52.700;7.306;2023-06-24T08:54:10;8.38;;;5.93;;
11187;SDS011;5650;52.700;7.306;2023-06-24T08:56:41;7.80;;;6.55;;
11187;SDS011;5650;52.700;7.306;2023-06-24T08:59:08;14.32;;;6.55;;
11187;SDS011;5650;52.700;7.306;2023-06-24T09:01:36;10.63;;;5.93;;
11187;SDS011;5650;52.700;7.306;2023-06-24T09:04:04;7.03;;;6.18;;
11187;SDS011;5650;52.700;7.306;2023-06-24T09:06:34;11.32;;;6.35;;
11187;SDS011;5650;52.700;7.306;2023-06-24T09:09:05;7.60;;;5.78;;
11187;SDS011;5650;52.700;7.306;2023-06-24T09:11:50;8.00;;;5.78;;
11187;SDS011;5650;52.700;7.306;2023-06-24T09:14:25;8.18;;;5.05;;
11187;SDS011;5650;52.700;7.306;2023-06-24T09:16:59;9.40;;;6.10;;
11187;SDS011;5650;52.700;7.306;2023-06-24T09:19:28;8.20;;;5.55;;
11187;SDS011;5650;52.700;7.306;2023-06-24T09:22:00;10.48;;;6.00;;
11187;SDS011;5650;52.700;7.306;2023-06-24T09:24:31;8.65;;;5.68;;
11187;SDS011;5650;52.700;7.306;2023-06-24T09:26:59;7.28;;;6.38;;
11187;SDS011;5650;52.700;7.306;2023-06-24T09:29:32;9.32;;;6.00;;
11187;SDS011;5650;52.700;7.306;2023-06-24T09:32:03;10.35;;;6.10;;
11187;SDS011;5650;52.700;7.306;2023-06-24T09:34:31;8.13;;;6.40;;
11187;SDS011;5650;52.700;7.306;2023-06-24T09:36:58;9.73;;;6.03;;
11187;SDS011;5650;52.700;7.306;2023-06-24T09:39:27;7.15;;;5.57;;
11187;SDS011;5650;52.700;7.306;2023-06-24T09:41:56;7.38;;;5.07;;
11187;SDS011;5650;52.700;7.306;2023-06-24T09:44:24;9.45;;;6.60;;
11187;SDS011;5650;52.700;7.306;2023-06-24T09:46:55;8.13;;;6.28;;
11187;SDS011;5650;52.700;7.306;2023-06-24T09:49:22;9.18;;;6.63;;
11187;SDS011;5650;52.700;7.306;2023-06-24T09:51:55;13.55;;;6.45;;
11187;SDS011;5650;52.700;7.306;2023-06-24T09:54:24;8.55;;;5.72;;
11187;SDS011;5650;52.700;7.306;2023-06-24T09:56:53;8.90;;;6.93;;
11187;SDS011;5650;52.700;7.306;2023-06-24T09:59:35;149.10;;;13.80;;
11187;SDS011;5650;52.700;7.306;2023-06-24T10:02:05;9.95;;;6.72;;
11187;SDS011;5650;52.700;7.306;2023-06-24T10:04:37;10.65;;;5.75;;
11187;SDS011;5650;52.700;7.306;2023-06-24T10:07:05;9.23;;;5.22;;
11187;SDS011;5650;52.700;7.306;2023-06-24T10:09:39;7.53;;;5.75;;
11187;SDS011;5650;52.700;7.306;2023-06-24T10:12:12;8.60;;;5.93;;
11187;SDS011;5650;52.700;7.306;2023-06-24T10:14:42;9.40;;;5.90;;
11187;SDS011;5650;52.700;7.306;2023-06-24T10:17:11;7.95;;;6.35;;
11187;SDS011;5650;52.700;7.306;2023-06-24T10:19:39;8.02;;;5.82;;
11187;SDS011;5650;52.700;7.306;2023-06-24T10:22:07;6.80;;;5.93;;
11187;SDS011;5650;52.700;7.306;2023-06-24T10:24:36;8.07;;;6.20;;
11187;SDS011;5650;52.700;7.306;2023-06-24T10:27:07;10.25;;;6.95;;
11187;SDS011;5650;52.700;7.306;2023-06-24T10:29:44;9.60;;;7.00;;
11187;SDS011;5650;52.700;7.306;2023-06-24T10:32:12;8.07;;;6.55;;
11187;SDS011;5650;52.700;7.306;2023-06-24T10:34:40;12.02;;;6.28;;
11187;SDS011;5650;52.700;7.306;2023-06-24T10:37:08;7.38;;;5.85;;
11187;SDS011;5650;52.700;7.306;2023-06-24T10:39:49;8.50;;;6.68;;
11187;SDS011;5650;52.700;7.306;2023-06-24T10:45:18;9.52;;;6.18;;
11187;SDS011;5650;52.700;7.306;2023-06-24T10:47:50;9.63;;;6.68;;
11187;SDS011;5650;52.700;7.306;2023-06-24T10:50:21;11.00;;;7.60;;
11187;SDS011;5650;52.700;7.306;2023-06-24T10:52:50;8.75;;;6.20;;
11187;SDS011;5650;52.700;7.306;2023-06-24T10:55:21;8.93;;;5.70;;
11187;SDS011;5650;52.700;7.306;2023-06-24T10:57:51;8.75;;;6.72;;
11187;SDS011;5650;52.700;7.306;2023-06-24T11:00:19;7.70;;;6.60;;
11187;SDS011;5650;52.700;7.306;2023-06-24T11:02:47;6.85;;;5.00;;
11187;SDS011;5650;52.700;7.306;2023-06-24T11:05:34;7.22;;;5.22;;
11187;SDS011;5650;52.700;7.306;2023-06-24T11:08:04;7.80;;;6.13;;
11187;SDS011;5650;52.700;7.306;2023-06-24T11:10:32;8.05;;;5.60;;
11187;SDS011;5650;52.700;7.306;2023-06-24T11:13:05;6.72;;;5.68;;
11187;SDS011;5650;52.700;7.306;2023-06-24T11:15:33;9.75;;;6.93;;
11187;SDS011;5650;52.700;7.306;2023-06-24T11:18:01;7.70;;;5.60;;
11187;SDS011;5650;52.700;7.306;2023-06-24T11:20:29;7.40;;;4.85;;
11187;SDS011;5650;52.700;7.306;2023-06-24T11:23:00;9.38;;;5.47;;
11187;SDS011;5650;52.700;7.306;2023-06-24T11:25:37;6.18;;;5.50;;
11187;SDS011;5650;52.700;7.306;2023-06-24T11:28:13;10.85;;;5.15;;
11187;SDS011;5650;52.700;7.306;2023-06-24T11:30:44;9.73;;;5.85;;
11187;SDS011;5650;52.700;7.306;2023-06-24T11:33:25;7.28;;;5.18;;
11187;SDS011;5650;52.700;7.306;2023-06-24T11:35:56;6.82;;;4.63;;
11187;SDS011;5650;52.700;7.306;2023-06-24T11:38:24;11.48;;;4.85;;
11187;SDS011;5650;52.700;7.306;2023-06-24T11:40:57;9.18;;;3.92;;
11187;SDS011;5650;52.700;7.306;2023-06-24T11:43:26;5.43;;;4.93;;
11187;SDS011;5650;52.700;7.306;2023-06-24T11:45:54;11.02;;;5.22;;
11187;SDS011;5650;52.700;7.306;2023-06-24T11:48:21;8.35;;;4.68;;
11187;SDS011;5650;52.700;7.306;2023-06-24T11:50:56;5.43;;;4.90;;
11187;SDS011;5650;52.700;7.306;2023-06-24T11:53:29;11.10;;;5.95;;
11187;SDS011;5650;52.700;7.306;2023-06-24T11:55:57;7.63;;;5.03;;
11187;SDS011;5650;52.700;7.306;2023-06-24T11:58:24;5.97;;;5.35;;
11187;SDS011;5650;52.700;7.306;2023-06-24T12:01:00;6.22;;;4.78;;
11187;SDS011;5650;52.700;7.306;2023-06-24T12:03:30;6.75;;;4.97;;
11187;SDS011;5650;52.700;7.306;2023-06-24T12:05:59;8.05;;;5.60;;
11187;SDS011;5650;52.700;7.306;2023-06-24T12:08:26;5.88;;;5.28;;
11187;SDS011;5650;52.700;7.306;2023-06-24T12:13:24;14.20;;;5.65;;
11187;SDS011;5650;52.700;7.306;2023-06-24T12:15:54;8.80;;;5.78;;
11187;SDS011;5650;52.700;7.306;2023-06-24T12:18:24;9.23;;;5.75;;
11187;SDS011;5650;52.700;7.306;2023-06-24T12:20:58;10.77;;;5.55;;
11187;SDS011;5650;52.700;7.306;2023-06-24T12:23:25;8.50;;;5.55;;
11187;SDS011;5650;52.700;7.306;2023-06-24T12:25:52;7.82;;;5.95;;
11187;SDS011;5650;52.700;7.306;2023-06-24T12:28:20;7.70;;;5.35;;
11187;SDS011;5650;52.700;7.306;2023-06-24T12:31:03;7.60;;;4.93;;
11187;SDS011;5650;52.700;7.306;2023-06-24T12:33:34;7.75;;;5.68;;
11187;SDS011;5650;52.700;7.306;2023-06-24T12:36:01;7.18;;;5.00;;
11187;SDS011;5650;52.700;7.306;2023-06-24T12:38:34;7.47;;;4.63;;
11187;SDS011;5650;52.700;7.306;2023-06-24T12:41:02;5.40;;;4.60;;
11187;SDS011;5650;52.700;7.306;2023-06-24T12:43:35;5.60;;;4.80;;
11187;SDS011;5650;52.700;7.306;2023-06-24T12:46:04;5.38;;;4.82;;
11187;SDS011;5650;52.700;7.306;2023-06-24T12:48:31;7.85;;;4.68;;
11187;SDS011;5650;52.700;7.306;2023-06-24T12:51:04;4.88;;;4.00;;
11187;SDS011;5650;52.700;7.306;2023-06-24T12:53:32;5.80;;;4.05;;
11187;SDS011;5650;52.700;7.306;2023-06-24T12:55:59;5.43;;;4.00;;
11187;SDS011;5650;52.700;7.306;2023-06-24T12:58:26;5.32;;;3.63;;
11187;SDS011;5650;52.700;7.306;2023-06-24T13:00:54;5.85;;;3.95;;
11187;SDS011;5650;52.700;7.306;2023-06-24T13:03:22;4.80;;;4.00;;
11187;SDS011;5650;52.700;7.306;2023-06-24T13:05:50;10.05;;;4.60;;
11187;SDS011;5650;52.700;7.306;2023-06-24T13:08:17;5.40;;;3.83;;
11187;SDS011;5650;52.700;7.306;2023-06-24T13:10:46;5.47;;;3.60;;
11187;SDS011;5650;52.700;7.306;2023-06-24T13:13:16;4.38;;;3.88;;
11187;SDS011;5650;52.700;7.306;2023-06-24T13:15:44;5.65;;;4.25;;
11187;SDS011;5650;52.700;7.306;2023-06-24T13:18:14;5.25;;;4.03;;
11187;SDS011;5650;52.700;7.306;2023-06-24T13:20:46;4.88;;;3.92;;
11187;SDS011;5650;52.700;7.306;2023-06-24T13:23:16;4.25;;;3.47;;
11187;SDS011;5650;52.700;7.306;2023-06-24T13:25:47;7.43;;;4.10;;
11187;SDS011;5650;52.700;7.306;2023-06-24T13:28:14;3.83;;;3.38;;
11187;SDS011;5650;52.700;7.306;2023-06-24T13:30:44;3.45;;;3.15;;
11187;SDS011;5650;52.700;7.306;2023-06-24T13:33:14;4.47;;;3.47;;
11187;SDS011;5650;52.700;7.306;2023-06-24T13:35:46;3.20;;;2.90;;
11187;SDS011;5650;52.700;7.306;2023-06-24T13:38:14;2.97;;;2.75;;
11187;SDS011;5650;52.700;7.306;2023-06-24T13:40:41;8.48;;;3.03;;
11187;SDS011;5650;52.700;7.306;2023-06-24T13:43:09;5.00;;;2.88;;
11187;SDS011;5650;52.700;7.306;2023-06-24T13:45:36;3.50;;;3.20;;
11187;SDS011;5650;52.700;7.306;2023-06-24T13:48:15;4.80;;;3.90;;
11187;SDS011;5650;52.700;7.306;2023-06-24T13:50:42;5.25;;;3.35;;
11187;SDS011;5650;52.700;7.306;2023-06-24T13:53:11;3.70;;;3.33;;
11187;SDS011;5650;52.700;7.306;2023-06-24T13:55:50;5.10;;;2.92;;
11187;SDS011;5650;52.700;7.306;2023-06-24T13:58:18;4.50;;;3.25;;
11187;SDS011;5650;52.700;7.306;2023-06-24T14:01:15;3.50;;;2.88;;
11187;SDS011;5650;52.700;7.306;2023-06-24T14:03:43;5.75;;;3.10;;
11187;SDS011;5650;52.700;7.306;2023-06-24T14:06:21;4.40;;;3.42;;
11187;SDS011;5650;52.700;7.306;2023-06-24T14:08:54;5.22;;;3.00;;
11187;SDS011;5650;52.700;7.306;2023-06-24T14:11:24;4.07;;;2.50;;
11187;SDS011;5650;52.700;7.306;2023-06-24T14:13:51;4.00;;;2.80;;
11187;SDS011;5650;52.700;7.306;2023-06-24T14:16:30;4.82;;;2.53;;
11187;SDS011;5650;52.700;7.306;2023-06-24T14:18:57;5.20;;;2.88;;
11187;SDS011;5650;52.700;7.306;2023-06-24T14:21:26;4.05;;;2.70;;
11187;SDS011;5650;52.700;7.306;2023-06-24T14:23:55;4.47;;;3.00;;
11187;SDS011;5650;52.700;7.306;2023-06-24T14:26:29;6.13;;;2.97;;
11187;SDS011;5650;52.700;7.306;2023-06-24T14:28:56;4.07;;;2.95;;
11187;SDS011;5650;52.700;7.306;2023-06-24T14:31:32;5.00;;;2.83;;
11187;SDS011;5650;52.700;7.306;2023-06-24T14:34:05;2.88;;;2.60;;
11187;SDS011;5650;52.700;7.306;2023-06-24T14:36:38;3.05;;;2.70;;
11187;SDS011;5650;52.700;7.306;2023-06-24T14:39:07;4.20;;;3.60;;
11187;SDS011;5650;52.700;7.306;2023-06-24T14:41:34;3.90;;;3.28;;
11187;SDS011;5650;52.700;7.306;2023-06-24T14:44:01;2.83;;;2.63;;
11187;SDS011;5650;52.700;7.306;2023-06-24T14:46:28;6.30;;;2.92;;
11187;SDS011;5650;52.700;7.306;2023-06-24T14:48:57;5.13;;;3.00;;
11187;SDS011;5650;52.700;7.306;2023-06-24T14:51:24;3.42;;;2.45;;
11187;SDS011;5650;52.700;7.306;2023-06-24T14:53:57;3.88;;;2.90;;
11187;SDS011;5650;52.700;7.306;2023-06-24T14:56:26;4.25;;;2.97;;
11187;SDS011;5650;52.700;7.306;2023-06-24T14:58:59;4.03;;;2.78;;
11187;SDS011;5650;52.700;7.306;2023-06-24T15:01:29;4.22;;;2.75;;
11187;SDS011;5650;52.700;7.306;2023-06-24T15:03:57;6.35;;;2.72;;
11187;SDS011;5650;52.700;7.306;2023-06-24T15:06:34;5.43;;;2.78;;
11187;SDS011;5650;52.700;7.306;2023-06-24T15:09:01;4.82;;;2.88;;
11187;SDS011;5650;52.700;7.306;2023-06-24T15:11:33;6.07;;;2.83;;
11187;SDS011;5650;52.700;7.306;2023-06-24T15:14:03;3.40;;;2.85;;
11187;SDS011;5650;52.700;7.306;2023-06-24T15:16:30;4.90;;;2.90;;
11187;SDS011;5650;52.700;7.306;2023-06-24T15:18:57;5.15;;;3.13;;
11187;SDS011;5650;52.700;7.306;2023-06-24T15:21:27;3.35;;;2.90;;
11187;SDS011;5650;52.700;7.306;2023-06-24T15:23:55;5.40;;;2.85;;